Time;durP1;ratioP1;P1;durP2;ratioP2;P2;SDS_P1;SDS_P2;PMS_P1;PMS_P2;Temp;Humidity;BMP_temperature;BMP_pressure;BME280_temperature;BME280_humidity;BME280_pressure;Samples;Min_cycle;Max_cycle;Signal;HPM_P1;HPM_P2
2022/05/27 00:00:55;;;;;;;6.55;2.20;;;;;;;26.38;41.67;101892.63;4182682;28;20048;-64
2022/05/27 00:02:56;;;;;;;7.63;2.30;;;;;;;26.39;41.73;101897.09;4183855;28;20025;-63
2022/05/27 00:04:57;;;;;;;5.88;2.40;;;;;;;26.32;41.96;101889.88;4172806;28;20053;-65
2022/05/27 00:06:59;;;;;;;4.72;2.15;;;;;;;26.34;41.73;101893.25;4166478;28;20080;-63
2022/05/27 00:09:00;;;;;;;8.25;2.38;;;;;;;26.38;41.75;101899.06;4166615;28;20103;-64
2022/05/27 00:11:03;;;;;;;6.32;2.42;;;;;;;26.38;42.14;101901.03;4164325;28;20578;-64
2022/05/27 00:13:07;;;;;;;5.10;2.33;;;;;;;26.38;42.00;101889.81;4182527;28;20377;-64
2022/05/27 00:15:09;;;;;;;6.65;2.20;;;;;;;26.38;41.71;101898.25;4183586;28;20029;-64
2022/05/27 00:17:10;;;;;;;5.47;2.58;;;;;;;26.38;42.15;101887.00;4172861;28;20071;-64
2022/05/27 00:19:12;;;;;;;4.60;1.98;;;;;;;26.30;42.17;101880.94;4166795;28;20037;-63
2022/05/27 00:21:14;;;;;;;5.97;2.17;;;;;;;26.38;41.73;101890.66;4166878;28;20433;-64
2022/05/27 00:23:16;;;;;;;9.20;2.55;;;;;;;26.39;41.87;101885.88;4166380;28;20084;-64
2022/05/27 00:25:20;;;;;;;4.95;2.00;;;;;;;26.39;42.24;101885.88;4149252;28;20054;-64
2022/05/27 00:27:22;;;;;;;5.83;2.50;;;;;;;26.38;41.81;101887.84;4165331;28;20100;-65
2022/05/27 00:29:23;;;;;;;4.00;2.30;;;;;;;26.36;41.96;101879.72;4182759;28;20324;-65
2022/05/27 00:31:27;;;;;;;8.20;2.53;;;;;;;26.37;42.13;101874.97;4182766;28;20037;-64
2022/05/27 00:33:28;;;;;;;6.27;2.57;;;;;;;26.35;42.06;101883.69;4182547;28;20041;-64
2022/05/27 00:35:29;;;;;;;6.72;2.92;;;;;;;26.35;41.80;101875.25;4182705;28;20037;-64
2022/05/27 00:37:31;;;;;;;9.90;2.72;;;;;;;26.35;41.80;101875.25;4176827;28;20086;-64
2022/05/27 00:39:33;;;;;;;5.60;2.10;;;;;;;26.36;41.78;101885.34;4183141;28;20095;-64
2022/05/27 00:41:34;;;;;;;5.80;2.08;;;;;;;26.36;42.02;101879.72;4183199;28;20033;-64
2022/05/27 00:43:37;;;;;;;8.13;2.20;;;;;;;26.33;42.37;101874.69;4183023;28;20036;-64
2022/05/27 00:45:43;;;;;;;6.78;2.50;;;;;;;26.26;41.83;101857.41;4169137;28;20033;-64
2022/05/27 00:47:48;;;;;;;3.30;1.88;;;;;;;26.33;41.79;101863.47;4165205;28;20045;-64
2022/05/27 00:49:58;;;;;;;5.38;1.70;;;;;;;26.34;41.62;101865.19;4166379;28;20049;-64
2022/05/27 00:52:16;;;;;;;5.00;2.30;;;;;;;26.34;41.63;101865.19;4165682;28;20033;-64
2022/05/27 00:54:22;;;;;;;4.47;2.05;;;;;;;26.34;41.79;101858.69;4165463;28;20052;-64
2022/05/27 00:56:28;;;;;;;5.78;2.90;;;;;;;26.35;42.03;101855.63;4165605;28;20535;-64
2022/05/27 00:58:43;;;;;;;4.55;2.10;;;;;;;26.34;42.01;101855.91;4165737;28;20042;-64
2022/05/27 01:00:44;;;;;;;3.70;1.87;;;;;;;26.34;42.24;101853.94;4165864;28;20045;-64
2022/05/27 01:02:47;;;;;;;5.53;1.80;;;;;;;26.35;41.97;101855.63;4165612;28;20034;-64
2022/05/27 01:04:49;;;;;;;4.88;2.08;;;;;;;26.35;41.68;101858.44;4164893;28;20087;-64
2022/05/27 01:06:50;;;;;;;5.18;1.95;;;;;;;26.34;41.89;101853.94;4164172;28;20558;-64
2022/05/27 01:08:53;;;;;;;4.13;1.85;;;;;;;26.33;41.90;101846.66;4178100;28;20029;-64
2022/05/27 01:11:08;;;;;;;5.05;1.90;;;;;;;26.29;41.55;101841.91;4174399;28;20091;-64
2022/05/27 01:13:16;;;;;;;4.75;1.90;;;;;;;26.33;41.85;101852.25;4165715;28;20088;-64
2022/05/27 01:15:58;;;;;;;5.10;2.20;;;;;;;26.31;41.78;101851.72;4170438;28;20094;-64
2022/05/27 01:20:18;;;;;;;4.65;1.98;;;;;;;26.31;41.91;101854.53;4166308;28;20048;-64
2022/05/27 01:21:11;;;;;;;5.22;2.00;;;;;;;26.30;41.76;101852.03;4164511;28;20111;-64
2022/05/27 01:23:52;;;;;;;4.95;2.17;;;;;;;26.26;41.56;101839.72;4184101;28;20044;-64
2022/05/27 01:26:12;;;;;;;6.57;2.10;;;;;;;26.30;41.89;101850.06;4173758;28;20049;-64
2022/05/27 01:28:47;;;;;;;8.75;2.35;;;;;;;26.30;42.12;101847.25;4166800;28;20029;-64
2022/05/27 01:30:57;;;;;;;9.55;2.88;;;;;;;26.32;42.54;101850.59;4166634;28;20041;-64
2022/05/27 01:33:27;;;;;;;5.38;1.95;;;;;;;26.29;42.33;101844.72;4175174;28;20079;-64
2022/05/27 01:35:46;;;;;;;7.75;2.20;;;;;;;26.30;42.64;101847.25;4147635;28;20068;-64
2022/05/27 01:38:07;;;;;;;9.82;2.13;;;;;;;26.29;42.32;101845.56;4169452;28;20037;-64
2022/05/27 01:40:34;;;;;;;7.22;2.13;;;;;;;26.31;42.46;101848.94;4178857;28;20029;-64
2022/05/27 01:43:09;;;;;;;7.20;2.90;;;;;;;26.28;42.32;101832.66;4129466;28;20041;-64
2022/05/27 01:45:29;;;;;;;5.28;2.28;;;;;;;26.23;42.30;101835.53;4166935;28;20049;-63
2022/05/27 01:47:53;;;;;;;8.57;2.50;;;;;;;26.19;42.33;101828.84;4176669;28;20049;-64
2022/05/27 01:50:09;;;;;;;7.60;3.08;;;;;;;26.23;42.47;101832.72;4170079;28;20041;-64
2022/05/27 01:52:11;;;;;;;6.97;2.22;;;;;;;26.28;42.53;101838.28;4164337;28;20079;-63
2022/05/27 01:54:46;;;;;;;7.65;2.17;;;;;;;26.25;42.42;101838.91;4174054;28;20083;-63
2022/05/27 01:56:57;;;;;;;6.78;2.13;;;;;;;26.28;42.14;101838.28;4146217;28;20446;-64
2022/05/27 01:59:01;;;;;;;8.18;2.20;;;;;;;26.28;42.34;101835.47;4165529;28;20049;-64
2022/05/27 02:01:05;;;;;;;4.63;2.10;;;;;;;26.23;42.47;101835.53;4173743;28;20102;-65
2022/05/27 02:03:14;;;;;;;5.22;2.20;;;;;;;26.29;42.73;101847.53;4172017;28;20118;-64
2022/05/27 02:05:18;;;;;;;6.90;2.83;;;;;;;26.28;42.70;101841.09;4163988;28;20083;-62
2022/05/27 02:07:33;;;;;;;12.35;4.80;;;;;;;26.28;42.59;101848.66;4165587;28;20079;-64
2022/05/27 02:09:48;;;;;;;7.30;3.60;;;;;;;26.28;42.42;101855.13;4169897;28;20033;-64
2022/05/27 02:11:56;;;;;;;8.18;3.40;;;;;;;26.28;42.92;101846.69;4164412;28;20029;-63
2022/05/27 02:14:16;;;;;;;8.13;3.58;;;;;;;26.24;42.79;101848.41;4168418;28;20095;-64
2022/05/27 02:16:52;;;;;;;8.15;3.30;;;;;;;26.28;42.98;101849.50;4170518;28;20029;-64
2022/05/27 02:19:00;;;;;;;8.32;3.63;;;;;;;26.30;42.95;101852.88;4155329;28;20447;-63
2022/05/27 02:21:07;;;;;;;10.27;3.55;;;;;;;26.31;42.66;101850.91;4165334;28;20038;-64
2022/05/27 02:23:34;;;;;;;8.80;3.97;;;;;;;26.30;42.78;101852.88;4173699;28;20044;-64
2022/05/27 02:25:41;;;;;;;11.65;4.20;;;;;;;26.30;43.12;101846.44;4157919;28;20115;-63
2022/05/27 02:28:00;;;;;;;10.35;4.70;;;;;;;26.31;42.85;101854.53;4172729;28;20102;-64
2022/05/27 02:30:05;;;;;;;11.07;3.60;;;;;;;26.32;42.92;101839.38;4169916;28;20554;-63
2022/05/27 02:32:12;;;;;;;9.85;4.05;;;;;;;26.22;42.73;101816.19;4169241;28;20045;-64
2022/05/27 02:36:59;;;;;;;8.25;3.92;;;;;;;26.30;43.17;101824.81;4164348;28;20091;-62
2022/05/27 02:39:00;;;;;;;9.00;4.25;;;;;;;26.31;42.90;101828.44;4165707;28;20547;-61
2022/05/27 02:41:20;;;;;;;10.93;4.25;;;;;;;26.31;42.78;101829.28;4165571;28;20419;-62
2022/05/27 02:43:39;;;;;;;11.93;4.32;;;;;;;26.30;42.95;101819.19;4175437;28;20122;-62
2022/05/27 02:45:49;;;;;;;9.60;4.90;;;;;;;26.31;42.83;101809.63;4170052;28;20103;-62
2022/05/27 02:48:16;;;;;;;12.35;4.90;;;;;;;26.32;42.78;101816.09;4162686;28;20091;-61
2022/05/27 02:50:31;;;;;;;13.65;4.68;;;;;;;26.33;43.31;101812.13;4162540;28;20037;-61
2022/05/27 02:52:48;;;;;;;10.27;4.72;;;;;;;26.25;42.99;101798.75;4173078;28;20481;-62
2022/05/27 02:55:19;;;;;;;9.93;4.53;;;;;;;26.32;42.81;101814.13;4165191;28;20393;-62
2022/05/27 02:57:28;;;;;;;12.13;4.63;;;;;;;26.33;43.37;101818.59;4163974;28;20033;-61
2022/05/27 02:59:31;;;;;;;10.25;5.25;;;;;;;26.33;42.89;101815.78;4160955;28;20624;-62
2022/05/27 03:01:33;;;;;;;15.00;5.25;;;;;;;26.33;43.11;101812.13;4165165;28;20033;-62
2022/05/27 03:03:34;;;;;;;12.32;5.18;;;;;;;26.29;43.12;101805.44;4164597;28;20037;-62
2022/05/27 03:05:54;;;;;;;10.48;5.10;;;;;;;26.32;43.38;101804.84;4158710;28;20049;-63
2022/05/27 03:08:19;;;;;;;11.82;4.78;;;;;;;26.33;43.15;101812.13;4172044;28;20575;-63
2022/05/27 03:10:32;;;;;;;13.10;4.90;;;;;;;26.34;43.12;101803.44;4171757;28;20041;-64
2022/05/27 03:12:58;;;;;;;11.13;5.18;;;;;;;26.34;43.13;101797.84;4172717;28;20091;-63
2022/05/27 03:15:19;;;;;;;10.73;5.05;;;;;;;26.35;42.94;101805.09;4174157;28;20577;-63
2022/05/27 03:17:35;;;;;;;12.27;5.55;;;;;;;26.32;42.88;101788.84;4169789;28;20049;-63
2022/05/27 03:20:05;;;;;;;13.80;5.88;;;;;;;26.35;43.15;101795.84;4152561;28;20041;-63
2022/05/27 03:22:15;;;;;;;14.95;6.15;;;;;;;26.38;43.43;101788.78;4161944;28;20075;-63
2022/05/27 03:24:19;;;;;;;11.98;5.78;;;;;;;26.38;43.20;101778.41;4164458;28;20057;-63
2022/05/27 03:26:38;;;;;;;16.33;6.20;;;;;;;26.36;43.15;101773.09;4162144;28;20095;-65
2022/05/27 03:28:43;;;;;;;14.50;6.32;;;;;;;26.39;43.55;101773.63;4164182;28;20148;-63
2022/05/27 03:31:05;;;;;;;10.57;5.75;;;;;;;26.35;43.67;101760.22;4167105;28;20053;-63
2022/05/27 03:33:21;;;;;;;15.73;6.95;;;;;;;26.38;43.41;101757.94;4163489;28;20030;-62
2022/05/27 03:35:28;;;;;;;;;;;;;;;26.38;43.45;101766.34;4172213;28;20092;-63
2022/05/27 03:37:41;;;;;;;11.95;6.30;;;;;;;26.43;43.48;101755.91;4150481;28;19971;-63
2022/05/27 03:39:52;;;;;;;13.35;6.10;;;;;;;26.33;43.75;101728.78;4163991;28;20096;-63
2022/05/27 03:42:01;;;;;;;15.75;6.68;;;;;;;26.43;44.07;101755.06;4169441;28;20032;-63
2022/05/27 03:44:02;;;;;;;14.55;7.75;;;;;;;26.42;44.59;101744.97;4162836;28;20041;-62
2022/05/27 03:46:04;;;;;;;21.45;9.18;;;;;;;26.36;44.78;101730.19;4177972;28;20149;-62
2022/05/27 03:48:08;;;;;;;21.20;8.30;;;;;;;26.40;46.03;101738.84;4165907;28;20045;-63
2022/05/27 03:50:15;;;;;;;18.95;7.35;;;;;;;26.46;45.61;101748.88;4166831;28;20391;-63
2022/05/27 03:52:28;;;;;;;15.13;7.15;;;;;;;26.46;44.97;101744.09;4179712;28;20095;-63
2022/05/27 03:54:32;;;;;;;23.40;6.88;;;;;;;26.45;45.56;101731.22;4162138;28;20083;-64
2022/05/27 03:56:36;;;;;;;14.50;6.83;;;;;;;26.47;45.63;101739.31;4170768;28;20037;-63
2022/05/27 03:58:38;;;;;;;16.70;6.95;;;;;;;26.47;46.39;101736.53;4180034;28;20036;-63
2022/05/27 04:00:41;;;;;;;17.63;7.32;;;;;;;26.47;45.94;101728.09;4178294;28;20115;-63
2022/05/27 04:02:44;;;;;;;16.60;6.85;;;;;;;26.46;46.11;101729.25;4172363;28;20045;-63
2022/05/27 04:04:45;;;;;;;16.75;6.82;;;;;;;26.47;45.91;101716.88;4167527;28;20033;-63
2022/05/27 04:06:49;;;;;;;17.15;7.28;;;;;;;26.48;45.86;101712.94;4165280;28;20424;-63
2022/05/27 04:08:51;;;;;;;11.80;5.20;;;;;;;26.46;47.33;101712.41;4180938;28;20094;-64
2022/05/27 04:10:52;;;;;;;14.10;5.07;;;;;;;26.49;47.08;101709.00;4155006;28;20034;-63
2022/05/27 04:12:53;;;;;;;12.88;5.72;;;;;;;26.46;47.17;101703.97;4168298;28;20037;-63
2022/05/27 04:14:55;;;;;;;16.05;5.45;;;;;;;26.50;47.43;101710.66;4179092;28;20040;-64
2022/05/27 04:17:27;;;;;;;10.65;5.20;;;;;;;26.50;47.38;101705.06;4177348;28;20432;-64
2022/05/27 04:19:20;;;;;;;11.93;4.90;;;;;;;26.52;47.81;101703.59;4166894;28;20034;-63
2022/05/27 04:21:23;;;;;;;12.23;4.97;;;;;;;26.53;47.76;101707.28;4169118;28;20621;-63
2022/05/27 04:23:24;;;;;;;11.88;4.70;;;;;;;26.54;47.95;101706.13;4168998;28;20037;-64
2022/05/27 04:25:26;;;;;;;11.80;4.88;;;;;;;26.54;48.13;101698.53;4168939;28;20041;-63
2022/05/27 04:27:28;;;;;;;11.77;4.82;;;;;;;26.55;47.67;101707.78;4176699;28;20439;-64
2022/05/27 04:29:30;;;;;;;12.20;4.75;;;;;;;26.55;48.58;101705.00;4173218;28;20143;-64
2022/05/27 04:31:31;;;;;;;9.98;4.47;;;;;;;26.56;48.36;101698.22;4194258;28;20103;-63
2022/05/27 04:33:32;;;;;;;9.23;4.72;;;;;;;26.55;47.96;101697.41;4172082;28;20029;-64
2022/05/27 04:35:55;;;;;;;15.70;5.70;;;;;;;26.54;48.29;101689.28;4166038;28;20423;-64
2022/05/27 04:37:59;;;;;;;19.60;9.02;;;;;;;26.58;48.36;101701.59;4180487;28;20114;-64
2022/05/27 04:40:01;;;;;;;18.65;10.45;;;;;;;26.57;48.23;101689.53;4166910;28;20046;-64
2022/05/27 04:42:03;;;;;;;25.60;14.70;;;;;;;26.57;47.41;101688.66;4166372;28;20041;-64
2022/05/27 04:44:05;;;;;;;25.00;16.35;;;;;;;26.58;47.83;101690.34;4165896;28;20041;-64
2022/05/27 04:46:06;;;;;;;30.20;18.90;;;;;;;26.57;47.92;101686.72;4149220;28;20045;-64
2022/05/27 04:48:09;;;;;;;29.23;19.42;;;;;;;26.55;47.98;101674.09;4165447;28;20095;-64
2022/05/27 04:50:14;;;;;;;32.25;20.40;;;;;;;26.55;47.84;101676.91;4148975;28;20073;-64
2022/05/27 04:52:15;;;;;;;43.38;26.25;;;;;;;26.59;49.17;101669.56;4166737;28;20037;-64
2022/05/27 04:54:17;;;;;;;32.42;20.35;;;;;;;26.54;48.41;101655.59;4165789;28;20045;-64
2022/05/27 04:56:24;;;;;;;32.28;21.90;;;;;;;26.60;48.34;101674.03;4165675;28;20034;-63
2022/05/27 04:58:26;;;;;;;33.60;20.90;;;;;;;26.60;48.91;101665.63;4169013;28;20103;-63
2022/05/27 05:00:28;;;;;;;30.02;18.85;;;;;;;26.60;48.01;101665.63;4166439;28;20095;-66
2022/05/27 05:02:30;;;;;;;28.05;17.20;;;;;;;26.57;47.91;101661.47;4184630;28;20040;-65
2022/05/27 05:04:34;;;;;;;24.30;14.27;;;;;;;26.59;46.97;101666.75;4199859;28;20037;-64
2022/05/27 05:06:35;;;;;;;31.02;13.82;;;;;;;26.56;46.45;101664.53;4202204;28;20465;-66
2022/05/27 05:08:38;;;;;;;23.38;12.77;;;;;;;26.53;46.87;101653.94;4202313;28;20422;-67
2022/05/27 05:10:39;;;;;;;29.85;14.73;;;;;;;26.58;47.38;101659.47;4173104;28;20125;-67
2022/05/27 05:12:43;;;;;;;57.10;17.65;;;;;;;26.54;47.66;101647.19;4170107;28;20037;-68
2022/05/27 05:14:45;;;;;;;38.60;13.35;;;;;;;26.60;46.73;101654.38;4158211;28;20053;-69
2022/05/27 05:16:46;;;;;;;34.30;14.50;;;;;;;26.52;46.85;101641.84;4157420;28;20080;-66
2022/05/27 05:18:48;;;;;;;37.47;14.38;;;;;;;26.61;47.42;101647.63;4154993;28;20095;-67
2022/05/27 05:20:49;;;;;;;39.63;14.25;;;;;;;26.61;47.51;101644.81;4179516;28;20424;-65
2022/05/27 05:22:53;;;;;;;31.85;14.23;;;;;;;26.59;47.65;101642.31;4176140;28;20092;-66
2022/05/27 05:24:59;;;;;;;38.60;14.45;;;;;;;26.59;47.98;101641.50;4175660;28;20029;-66
2022/05/27 05:27:01;;;;;;;43.65;14.70;;;;;;;26.58;47.59;101639.84;4175292;28;20531;-66
2022/05/27 05:29:02;;;;;;;49.35;14.20;;;;;;;26.60;47.38;101641.19;4172596;28;20091;-70
2022/05/27 05:31:06;;;;;;;48.05;14.80;;;;;;;26.53;47.16;101625.88;4170914;28;20041;-68
2022/05/27 05:33:08;;;;;;;42.45;14.82;;;;;;;26.61;46.47;101633.59;4174678;28;20049;-69
2022/05/27 05:35:13;;;;;;;43.85;13.93;;;;;;;26.57;47.05;101621.28;4188347;28;20041;-67
2022/05/27 05:37:17;;;;;;;46.15;13.65;;;;;;;26.50;47.46;101599.25;4186124;28;20098;-67
2022/05/27 05:39:19;;;;;;;49.55;13.93;;;;;;;26.63;46.89;101611.69;4166576;28;20045;-67
2022/05/27 05:41:41;;;;;;;41.60;13.55;;;;;;;26.61;47.03;101606.34;4171430;28;20497;-66
2022/05/27 05:43:42;;;;;;;32.92;13.57;;;;;;;26.64;46.81;101613.34;4186726;28;20045;-66
2022/05/27 05:45:45;;;;;;;42.78;13.02;;;;;;;26.61;47.11;101605.53;4185189;28;20045;-67
2022/05/27 05:47:47;;;;;;;37.08;12.95;;;;;;;26.61;46.82;101608.31;4180702;28;20086;-67
2022/05/27 05:49:50;;;;;;;33.88;13.02;;;;;;;26.60;47.28;101604.69;4174896;28;20435;-67
2022/05/27 05:51:56;;;;;;;46.65;13.57;;;;;;;26.58;46.68;101603.34;4150035;28;20058;-68
2022/05/27 05:53:58;;;;;;;35.60;13.25;;;;;;;26.60;46.88;101601.88;4168493;28;20025;-67
2022/05/27 05:55:59;;;;;;;40.72;13.73;;;;;;;26.57;46.93;101598.84;4185885;28;20025;-67
2022/05/27 05:58:02;;;;;;;34.85;12.45;;;;;;;26.60;46.42;101587.03;4188900;28;20045;-67
2022/05/27 06:00:04;;;;;;;40.60;13.50;;;;;;;26.62;46.25;101590.38;4170547;28;20446;-65
2022/05/27 06:02:07;;;;;;;38.28;13.73;;;;;;;26.60;46.07;101584.22;4177151;28;20044;-70
2022/05/27 06:04:09;;;;;;;34.80;12.95;;;;;;;26.61;46.08;101583.06;4161712;28;20037;-68
2022/05/27 06:06:11;;;;;;;31.77;13.57;;;;;;;26.60;46.07;101585.03;4165835;28;20037;-69
2022/05/27 06:08:20;;;;;;;39.00;13.48;;;;;;;26.59;46.51;101585.34;4166129;28;20086;-68
2022/05/27 06:10:24;;;;;;;35.00;13.05;;;;;;;26.61;46.13;101586.69;4165980;28;20063;-68
2022/05/27 06:12:27;;;;;;;32.08;12.43;;;;;;;26.53;46.50;101569.75;4165596;28;20087;-70
2022/05/27 06:14:29;;;;;;;36.92;12.57;;;;;;;26.61;46.65;101575.47;4176431;28;20040;-68
2022/05/27 06:16:33;;;;;;;30.63;11.45;;;;;;;26.60;46.89;101570.19;4180068;28;20095;-68
2022/05/27 06:18:35;;;;;;;46.38;13.18;;;;;;;26.61;46.43;101571.84;4176853;28;20039;-67
2022/05/27 06:20:37;;;;;;;38.58;12.95;;;;;;;26.59;46.73;101563.72;4171746;28;20090;-67
2022/05/27 06:22:39;;;;;;;30.77;12.43;;;;;;;26.61;46.58;101566.22;4180245;28;20049;-66
2022/05/27 06:24:43;;;;;;;34.72;11.75;;;;;;;26.60;46.36;101558.94;4165558;28;20045;-67
2022/05/27 06:26:47;;;;;;;32.83;12.00;;;;;;;26.53;46.32;101547.28;4165211;28;20041;-68
2022/05/27 06:35:48;;;;;;;27.55;11.38;;;;;;;26.66;46.00;101563.31;4162719;28;20033;-68
2022/05/27 06:37:50;;;;;;;33.85;10.73;;;;;;;26.66;46.38;101552.09;4179374;28;20044;-68
2022/05/27 06:39:51;;;;;;;28.60;11.82;;;;;;;26.63;45.98;101549.94;4178301;28;20091;-68
2022/05/27 06:41:53;;;;;;;26.92;11.88;;;;;;;26.64;46.33;101542.34;4166011;28;20088;-68
2022/05/27 06:43:55;;;;;;;31.23;12.23;;;;;;;26.63;46.04;101538.69;4166174;28;20091;-68
2022/05/27 06:45:57;;;;;;;22.10;10.55;;;;;;;26.64;46.02;101543.16;4164709;28;20037;-68
2022/05/27 06:47:59;;;;;;;28.63;11.00;;;;;;;26.63;46.19;101537.88;4165634;28;20099;-69
2022/05/27 06:50:01;;;;;;;25.58;10.50;;;;;;;26.64;45.84;101534.75;4167851;28;20041;-69
2022/05/27 06:52:03;;;;;;;25.98;10.23;;;;;;;26.63;45.73;101530.28;4165768;28;20095;-68
2022/05/27 06:54:09;;;;;;;23.15;10.77;;;;;;;26.63;45.99;101527.47;4165453;28;20053;-68
2022/05/27 06:56:14;;;;;;;23.35;10.48;;;;;;;26.61;45.72;101527.75;4163739;28;20497;-67
2022/05/27 06:58:15;;;;;;;25.70;10.70;;;;;;;26.60;45.86;101520.47;4172113;28;20444;-68
2022/05/27 07:00:17;;;;;;;23.27;10.18;;;;;;;26.61;45.67;101513.72;4165666;28;20095;-68
2022/05/27 07:02:19;;;;;;;23.80;11.40;;;;;;;26.59;45.98;101506.75;4164512;28;20103;-68
2022/05/27 07:04:20;;;;;;;29.38;11.18;;;;;;;26.61;45.71;101498.84;4169091;28;20542;-68
2022/05/27 07:06:25;;;;;;;20.27;9.82;;;;;;;26.58;45.76;101488.25;4180201;28;20040;-68
2022/05/27 07:08:27;;;;;;;26.95;10.68;;;;;;;26.52;45.75;101484.69;4170218;28;20092;-68
2022/05/27 07:10:28;;;;;;;24.38;10.48;;;;;;;26.61;46.02;101499.69;4164256;28;20037;-68
2022/05/27 07:12:29;;;;;;;27.95;11.32;;;;;;;26.61;45.93;101493.25;4163324;28;20111;-68
2022/05/27 07:14:31;;;;;;;26.58;10.05;;;;;;;26.58;46.03;101493.88;4164994;28;20041;-68
2022/05/27 07:16:32;;;;;;;25.70;11.20;;;;;;;26.60;45.87;101497.19;4163220;28;20099;-68
2022/05/27 07:18:33;;;;;;;26.45;10.88;;;;;;;26.60;45.59;101486.78;4164163;28;20045;-68
2022/05/27 07:20:36;;;;;;;17.27;9.77;;;;;;;26.59;45.82;101489.91;4164191;28;20045;-68
2022/05/27 07:22:37;;;;;;;21.27;10.15;;;;;;;26.59;45.81;101489.91;4164329;28;20050;-69
2022/05/27 07:24:42;;;;;;;18.98;10.32;;;;;;;26.59;45.82;101495.53;4163554;28;20037;-68
2022/05/27 07:26:45;;;;;;;18.98;9.82;;;;;;;26.57;45.78;101486.56;4163809;28;20423;-68
2022/05/27 07:28:46;;;;;;;22.45;9.73;;;;;;;26.53;45.55;101475.16;4162098;28;20041;-68
2022/05/27 07:30:50;;;;;;;24.00;10.05;;;;;;;26.57;45.87;101470.59;4161573;28;20041;-68
2022/05/27 07:32:52;;;;;;;21.50;9.60;;;;;;;26.58;45.69;101482.66;4164584;28;20072;-68
2022/05/27 07:34:53;;;;;;;18.88;9.40;;;;;;;26.58;45.40;101482.66;4163715;28;20038;-68
2022/05/27 07:36:54;;;;;;;19.80;9.43;;;;;;;26.57;45.51;101486.56;4166085;28;20084;-68
2022/05/27 07:38:56;;;;;;;23.83;9.60;;;;;;;26.53;45.35;101469.53;4166371;28;20050;-68
2022/05/27 07:40:58;;;;;;;19.92;9.50;;;;;;;26.55;45.46;101477.63;4167012;28;20068;-68
2022/05/27 07:43:00;;;;;;;18.25;9.35;;;;;;;26.56;45.82;101485.75;4165896;28;20053;-68
2022/05/27 07:45:01;;;;;;;18.55;10.02;;;;;;;26.56;45.61;101480.13;4167412;28;20558;-68
2022/05/27 07:47:03;;;;;;;17.92;9.60;;;;;;;26.57;45.85;101480.94;4169738;28;20030;-69
2022/05/27 07:49:07;;;;;;;17.83;9.43;;;;;;;26.56;45.66;101463.28;4168205;28;20099;-69
2022/05/27 07:51:10;;;;;;;15.77;8.93;;;;;;;26.51;45.70;101466.19;4169195;28;20091;-69
2022/05/27 07:53:13;;;;;;;16.60;8.95;;;;;;;26.55;45.63;101475.66;4180881;28;20079;-68
2022/05/27 07:55:17;;;;;;;17.25;8.82;;;;;;;26.56;45.75;101470.88;4169697;28;20087;-67
2022/05/27 07:57:24;;;;;;;15.88;8.82;;;;;;;26.54;45.67;101465.56;4173467;28;20068;-68
2022/05/27 07:59:26;;;;;;;16.50;9.00;;;;;;;26.54;45.35;101464.75;4177336;28;20056;-68
2022/05/27 08:01:30;;;;;;;19.70;9.90;;;;;;;26.52;45.35;101462.22;4177910;28;20095;-67
2022/05/27 08:03:31;;;;;;;16.52;8.70;;;;;;;26.48;45.72;101444.38;4168386;28;20435;-68
2022/05/27 08:05:37;;;;;;;18.85;8.90;;;;;;;26.56;45.16;101468.06;4171985;28;20033;-68
2022/05/27 08:07:41;;;;;;;19.85;8.88;;;;;;;26.55;45.65;101460.78;4184766;28;20049;-68
2022/05/27 08:09:42;;;;;;;16.70;8.55;;;;;;;26.53;45.51;101457.47;4185360;28;20431;-68
2022/05/27 08:11:43;;;;;;;16.15;8.77;;;;;;;26.55;45.43;101461.63;4173738;28;20025;-68
2022/05/27 08:13:51;;;;;;;15.25;8.25;;;;;;;26.54;45.59;101461.94;4168279;28;20416;-68
2022/05/27 08:15:53;;;;;;;14.60;8.05;;;;;;;26.55;45.12;101455.19;4168087;28;20041;-68
2022/05/27 08:17:56;;;;;;;16.17;8.43;;;;;;;26.54;45.49;101457.16;4166059;28;20076;-68
2022/05/27 08:19:57;;;;;;;17.40;8.55;;;;;;;26.47;45.37;101441.84;4166546;28;20049;-68
2022/05/27 08:21:59;;;;;;;15.07;8.63;;;;;;;26.52;45.49;101444.56;4166197;28;20127;-68
2022/05/27 08:24:00;;;;;;;14.73;8.40;;;;;;;26.53;45.71;101451.88;4182368;28;20049;-68
2022/05/27 08:26:02;;;;;;;24.27;8.48;;;;;;;26.53;45.65;101463.09;4177205;28;20378;-68
2022/05/27 08:28:04;;;;;;;15.80;9.07;;;;;;;26.52;45.42;101462.22;4180536;28;20538;-68
2022/05/27 08:30:07;;;;;;;13.45;8.02;;;;;;;26.52;45.87;101461.41;4181597;28;20045;-68
2022/05/27 08:32:09;;;;;;;13.32;8.75;;;;;;;26.51;45.51;101462.53;4173081;28;20427;-68
2022/05/27 08:38:51;;;;;;;16.77;8.18;;;;;;;26.46;45.41;101445.78;4166451;28;20099;-66
2022/05/27 08:41:14;;;;;;;15.35;8.13;;;;;;;26.50;45.61;101446.84;4166295;28;20447;-67
2022/05/27 08:43:41;;;;;;;14.93;8.00;;;;;;;26.50;45.43;101446.84;4167117;28;20049;-68
2022/05/27 08:45:59;;;;;;;16.88;8.98;;;;;;;26.51;45.63;101459.75;4167178;28;20045;-68
2022/05/27 08:48:06;;;;;;;13.90;8.63;;;;;;;26.50;45.30;101455.28;4165283;28;20030;-67
2022/05/27 08:50:21;;;;;;;15.25;7.57;;;;;;;26.51;45.35;101459.75;4175035;28;20038;-67
2022/05/27 08:52:33;;;;;;;12.23;8.30;;;;;;;26.50;45.66;101455.28;4165475;28;20095;-68
2022/05/27 08:54:42;;;;;;;13.57;8.60;;;;;;;26.50;45.32;101458.06;4165885;28;20045;-67
2022/05/27 08:59:27;;;;;;;14.00;8.10;;;;;;;26.48;45.68;101460.34;4176755;28;20102;-67
2022/05/27 09:01:37;;;;;;;17.17;7.63;;;;;;;26.49;45.57;101453.63;4148776;28;20116;-68
2022/05/27 09:03:52;;;;;;;11.55;7.43;;;;;;;26.48;45.53;101455.59;4176191;28;20158;-67
2022/05/27 09:06:01;;;;;;;10.82;7.43;;;;;;;26.48;45.75;101454.72;4164458;28;20099;-68
2022/05/27 09:08:05;;;;;;;12.27;7.85;;;;;;;26.48;45.78;101460.34;4177097;28;20033;-68
2022/05/27 09:10:15;;;;;;;10.63;7.28;;;;;;;26.47;45.89;101465.13;4182412;28;20041;-68
2022/05/27 09:12:38;;;;;;;13.05;7.15;;;;;;;26.45;45.78;101455.38;4175491;28;20488;-68
2022/05/27 09:14:45;;;;;;;13.77;6.50;;;;;;;26.45;45.62;101450.59;4166029;28;20037;-68
2022/05/27 09:17:11;;;;;;;16.35;8.00;;;;;;;26.46;45.79;101451.41;4165004;28;20045;-69
2022/05/27 09:19:25;;;;;;;12.60;7.43;;;;;;;26.45;45.53;101444.97;4165618;28;20037;-68
2022/05/27 09:21:47;;;;;;;11.15;6.70;;;;;;;26.45;45.59;101438.53;4172816;28;20041;-69
2022/05/27 09:24:01;;;;;;;12.27;6.88;;;;;;;26.47;45.59;101439.03;4180443;28;20044;-68
2022/05/27 09:26:26;;;;;;;11.82;7.40;;;;;;;26.47;45.73;101444.66;4181751;28;20037;-69
2022/05/27 09:29:04;;;;;;;13.90;7.43;;;;;;;26.47;45.53;101433.44;4176291;28;20041;-68
2022/05/27 09:31:08;;;;;;;15.15;7.05;;;;;;;26.50;45.70;101441.25;4165972;28;20099;-69
2022/05/27 09:33:12;;;;;;;11.02;6.43;;;;;;;26.47;45.79;101436.22;4165468;28;20041;-68
2022/05/27 09:35:35;;;;;;;12.65;6.93;;;;;;;26.45;45.64;101435.72;4168139;28;20091;-69
2022/05/27 09:37:47;;;;;;;11.77;6.93;;;;;;;26.46;45.49;101443.00;4163980;28;20037;-69
2022/05/27 09:39:49;;;;;;;10.73;6.70;;;;;;;26.44;45.72;101434.88;4165822;28;20048;-69
2022/05/27 09:42:15;;;;;;;10.43;6.80;;;;;;;26.44;45.72;101436.88;4165914;28;20045;-69
2022/05/27 09:44:35;;;;;;;12.63;6.90;;;;;;;26.46;45.96;101440.19;4165421;28;20111;-69
2022/05/27 09:46:36;;;;;;;10.88;7.28;;;;;;;26.46;45.61;101440.19;4164572;28;20096;-69
2022/05/27 09:48:40;;;;;;;10.00;7.18;;;;;;;26.46;45.90;101434.56;4176287;28;20033;-68
2022/05/27 09:50:49;;;;;;;12.70;6.93;;;;;;;26.40;45.80;101431.00;4169741;28;20057;-68
2022/05/27 09:52:53;;;;;;;9.43;6.70;;;;;;;26.45;45.74;101439.34;4164043;28;20087;-68
2022/05/27 09:54:59;;;;;;;9.88;6.40;;;;;;;26.18;45.69;101394.34;4165037;28;20473;-68
2022/05/27 09:57:10;;;;;;;11.85;7.00;;;;;;;26.45;45.54;101438.53;4167581;28;20116;-68
2022/05/27 09:59:53;;;;;;;12.80;7.55;;;;;;;26.44;45.95;101436.88;4177793;28;20102;-68
2022/05/27 10:02:19;;;;;;;10.95;6.78;;;;;;;26.45;45.88;101432.91;4174034;28;20045;-68
2022/05/27 10:04:23;;;;;;;9.20;6.60;;;;;;;26.45;45.62;101433.75;4166904;28;20049;-68